Latest Weather Observations for Croker Island Airport

IDD60801

Issued at 3:01 pm CST Sunday 26 February 2017 (issued every 30 minutes, with the page automatically refreshed every 10 minutes)

About weather observations | Map of weather stations | Latest weather observations for NT | Other Formats
Station Details ID: 014308 Name: CROKER ISLAND AIRPORT Lat: -11.16 Lon: 132.48 Height: 9.2 m
Data from the previous 72 hours. | See also: Recent months at Croker Island Airport
Date/Time
CST
Temp
°C
App
Temp
°C
Dew
Point
°C
Rel
Hum
%
Delta-T
°C
Wind Press
QNH
hPa
Press
MSL
hPa
Rain since
9am
mm
Dir  Spd
km/h
Gust
km/h
Spd
kts
Gust
kts
26/03:00pm 33.6 40.7 27.6 71 4.4 SW 6 7 3 4 1005.5 1005.4 0.0
26/02:30pm 33.8 41.2 28.3 73 4.1 SSW 7 11 4 6 1005.8 1005.7 0.0
26/02:00pm 33.7 41.0 28.2 73 4.0 SW 7 9 4 5 1006.2 1006.1 0.0
26/01:30pm 33.7 41.3 28.6 74 3.8 WSW 7 11 4 6 1006.4 1006.3 0.0
26/01:00pm 32.7 39.0 27.4 73 3.9 WSW 9 11 5 6 1006.7 1006.6 0.0
26/12:30pm 32.9 40.4 29.0 80 2.9 SW 9 13 5 7 1007.1 1007.0 0.0
26/12:00pm 32.9 40.3 29.4 82 2.6 SW 11 15 6 8 1007.4 1007.3 0.0
26/11:30am 32.1 39.6 29.5 86 1.9 SSW 11 15 6 8 1007.8 1007.7 0.0
26/11:00am 31.9 39.2 29.7 88 1.6 SW 13 20 7 11 1008.1 1008.0 0.0
26/10:30am 31.2 37.9 29.4 90 1.3 SSW 15 19 8 10 1008.3 1008.2 0.0
26/10:00am 30.8 39.6 30.6 99 0.2 SW 9 15 5 8 1008.6 1008.5 0.0
26/09:30am 30.4 39.0 30.4 100 0.0 SSW 9 15 5 8 1008.6 1008.5 0.0
26/09:00am 29.7 38.1 29.7 100 0.0 SSW 7 9 4 5 1008.8 1008.7 0.8
26/08:30am 29.1 37.1 29.1 100 0.0 SSW 7 9 4 5 1008.6 1008.5 0.8
26/08:00am 28.1 35.5 28.1 100 0.0 SSW 6 11 3 6 1008.7 1008.6 0.8
26/07:30am 27.1 33.6 27.1 100 0.0 SSW 7 9 4 5 1008.5 1008.4 0.8
26/07:00am 26.4 32.1 26.4 100 0.0 S 9 13 5 7 1008.1 1008.0 0.8
26/06:30am 26.3 31.9 26.3 100 0.0 S 9 13 5 7 1008.0 1007.9 0.8
26/06:00am 26.4 30.9 26.4 100 0.0 SSW 15 20 8 11 1007.7 1007.6 0.8
26/05:30am 26.6 32.0 26.6 100 0.0 SSW 11 17 6 9 1007.7 1007.6 0.8
26/05:00am 27.2 32.3 27.2 100 0.0 SSW 15 22 8 12 1007.7 1007.6 0.8
26/04:30am 27.4 33.4 27.4 100 0.0 SSW 11 17 6 9 1007.8 1007.7 0.8
26/04:00am 27.5 33.9 27.5 100 0.0 S 9 13 5 7 1007.8 1007.7 0.8
26/03:30am 27.4 33.4 27.4 100 0.0 SSW 11 15 6 8 1008.0 1007.9 0.8
26/03:00am 27.8 34.0 27.8 100 0.0 SSW 11 17 6 9 1008.2 1008.1 0.8
26/02:30am 27.9 34.6 27.9 100 0.0 SW 9 13 5 7 1008.4 1008.3 0.8
26/02:00am 27.9 34.2 27.9 100 0.0 SSW 11 15 6 8 1008.5 1008.4 0.8
26/01:30am 27.6 34.1 27.6 100 0.0 SSW 9 13 5 7 1008.8 1008.7 0.8
26/01:00am 28.1 35.3 28.1 100 0.0 SW 7 11 4 6 1009.1 1009.0 0.8
26/12:30am 28.2 35.1 28.2 100 0.0 SW 9 13 5 7 1009.4 1009.3 0.8
26/12:00am 28.3 35.7 28.3 100 0.0 WSW 7 11 4 6 1009.7 1009.6 0.8
 
Date/Time
CST
Temp
°C
App
Temp
°C
Dew
Point
°C
Rel
Hum
%
Delta-T
°C
Wind Press
QNH
hPa
Press
MSL
hPa
Rain since
9am
mm
Dir  Spd
km/h
Gust
km/h
Spd
kts
Gust
kts
25/11:30pm 28.3 35.7 28.3 100 0.0 W 7 11 4 6 1009.7 1009.6 0.8
25/11:00pm 28.3 35.3 28.3 100 0.0 SW 9 13 5 7 1009.8 1009.7 0.8
25/10:30pm 28.6 35.4 28.6 100 0.0 WSW 11 15 6 8 1009.6 1009.5 0.8
25/10:00pm 28.6 35.8 28.6 100 0.0 W 9 15 5 8 1009.1 1009.0 0.8
25/09:30pm 28.4 35.1 28.4 100 0.0 WNW 11 17 6 9 1008.7 1008.6 0.8
25/09:00pm 28.4 35.1 28.4 100 0.0 WNW 11 20 6 11 1008.3 1008.2 0.8
25/08:30pm 28.0 35.3 28.0 100 0.0 NW 6 9 3 5 1008.5 1008.4 0.8
25/08:00pm 28.1 35.5 28.1 100 0.0 NW 6 9 3 5 1008.8 1008.7 0.8
25/07:30pm 28.3 35.9 28.3 100 0.0 NW 6 9 3 5 1008.9 1008.8 0.8
25/07:00pm 28.9 36.7 28.9 100 0.0 NW 7 11 4 6 1008.6 1008.5 0.8
25/06:30pm 29.3 37.2 29.0 98 0.2 WNW 7 11 4 6 1008.1 1008.0 0.8
25/06:00pm 29.8 37.4 29.1 96 0.5 NW 9 15 5 8 1007.6 1007.5 0.8
25/05:30pm 30.6 37.8 29.1 92 1.1 NW 11 17 6 9 1007.4 1007.3 0.8
25/05:00pm 31.3 38.9 29.1 88 1.6 WNW 9 15 5 8 1007.4 1007.3 0.8
25/04:30pm 30.4 37.9 29.5 95 0.7 WNW 11 17 6 9 1007.9 1007.8 0.8
25/04:00pm 31.4 40.3 30.7 96 0.5 WNW 9 17 5 9 1008.1 1008.0 0.8
25/03:30pm 30.9 39.4 30.7 99 0.2 NW 11 17 6 9 1008.0 1007.9 0.8
25/03:00pm 29.2 37.8 29.2 100 0.0 W 4 11 2 6 1008.4 1008.3 0.8
25/02:30pm 30.6 37.1 27.6 84 2.2 NW 9 13 5 7 1008.7 1008.6 0.0
25/02:00pm 31.2 38.2 27.8 82 2.5 W 7 11 4 6 1009.0 1008.9 0.0
25/01:30pm 32.5 39.9 28.4 79 3.0 SW 7 13 4 7 1009.1 1009.0 0.0
25/01:00pm 32.9 40.5 28.3 77 3.4 SSW 6 9 3 5 1009.6 1009.5 0.0
25/12:30pm 31.6 38.6 27.5 79 3.0 SSW 6 9 3 5 1010.0 1009.9 0.0
25/12:00pm 31.6 39.7 29.0 86 1.9 WSW 6 7 3 4 1010.7 1010.6 0.0
25/11:30am 31.2 39.8 29.2 89 1.5 WSW 4 6 2 3 1011.1 1011.0 0.0
25/11:00am 30.8 39.4 29.7 94 0.8 SW 6 7 3 4 1011.3 1011.2 0.0
25/10:30am 30.6 39.8 29.9 96 0.5 SW 4 6 2 3 1011.7 1011.6 0.0
25/10:00am 30.2 39.6 30.2 100 0.0 SW 4 7 2 4 1011.8 1011.7 0.0
25/09:30am 29.9 38.7 29.9 100 0.0 SW 6 7 3 4 1011.9 1011.8 0.0
25/09:00am 29.6 38.2 29.6 100 0.0 SSW 6 7 3 4 1011.7 1011.6 0.0
25/08:30am 28.9 37.3 28.9 100 0.0 SSW 4 6 2 3 1011.5 1011.4 0.0
25/08:00am 28.0 35.7 28.0 100 0.0 SSW 4 6 2 3 1011.1 1011.0 0.0
25/07:30am 26.8 33.7 26.8 100 0.0 S 4 6 2 3 1010.7 1010.6 0.0
25/07:00am 26.1 32.1 26.1 100 0.0 S 6 7 3 4 1010.5 1010.4 0.0
25/06:30am 26.1 32.1 26.1 100 0.0 ESE 6 6 3 3 1010.3 1010.2 0.0
25/06:00am 26.1 32.1 26.1 100 0.0 ESE 6 6 3 3 1010.1 1010.0 0.0
25/05:30am 26.0 32.0 26.0 100 0.0 ESE 6 6 3 3 1009.7 1009.6 0.0
25/05:00am 26.0 32.0 26.0 100 0.0 ESE 6 7 3 4 1009.3 1009.2 0.0
25/04:30am 26.1 32.1 26.1 100 0.0 E 6 6 3 3 1009.3 1009.2 0.0
25/04:00am 26.4 32.6 26.4 100 0.0 E 6 7 3 4 1009.4 1009.3 0.0
25/03:30am 26.5 32.8 26.5 100 0.0 ESE 6 7 3 4 1009.3 1009.2 0.0
25/03:00am 26.4 33.0 26.4 100 0.0 ESE 4 6 2 3 1009.4 1009.3 0.0
25/02:30am 26.6 33.3 26.6 100 0.0 ESE 4 6 2 3 1009.9 1009.8 0.0
25/02:00am 27.0 34.0 27.0 100 0.0 E 4 4 2 2 1010.3 1010.2 0.0
25/01:30am 27.2 34.0 27.2 100 0.0 ESE 6 7 3 4 1010.5 1010.4 0.0
25/01:00am 27.3 34.5 27.3 100 0.0 ESE 4 6 2 3 1010.7 1010.6 0.0
25/12:30am 26.9 34.2 26.9 100 0.0 ENE 2 2 1 1 1010.6 1010.5 0.0
25/12:00am 27.4 34.7 27.4 100 0.0 E 4 4 2 2 1010.9 1010.8 0.0
 
Date/Time
CST
Temp
°C
App
Temp
°C
Dew
Point
°C
Rel
Hum
%
Delta-T
°C
Wind Press
QNH
hPa
Press
MSL
hPa
Rain since
9am
mm
Dir  Spd
km/h
Gust
km/h
Spd
kts
Gust
kts
24/11:30pm 27.6 35.4 27.6 100 0.0 E 2 4 1 2 1010.9 1010.8 0.0
24/11:00pm 27.5 34.9 27.5 100 0.0 N 4 6 2 3 1010.7 1010.6 0.0
24/10:30pm 27.2 34.3 27.2 100 0.0 N 4 6 2 3 1010.4 1010.3 0.0
24/10:00pm 27.4 34.7 27.4 100 0.0 NNW 4 6 2 3 1010.4 1010.3 0.0
24/09:30pm 27.6 35.0 27.6 100 0.0 NNW 4 6 2 3 1010.4 1010.3 0.0
24/09:00pm 27.7 35.2 27.7 100 0.0 N 4 6 2 3 1010.2 1010.1 0.0
24/08:30pm 28.0 35.7 28.0 100 0.0 N 4 4 2 2 1009.7 1009.6 0.0
24/08:00pm 28.1 35.4 27.4 96 0.5 NNW 4 6 2 3 1009.7 1009.6 0.0
24/07:30pm 28.7 35.9 27.3 92 1.0 N 4 6 2 3 1009.7 1009.6 0.0
24/07:00pm 29.3 35.8 27.1 88 1.6 N 7 11 4 6 1009.3 1009.2 0.0
24/06:30pm 30.2 36.6 27.0 83 2.3 NNW 7 11 4 6 1009.1 1009.0 0.0
24/06:00pm 30.7 37.0 27.3 82 2.5 NNW 9 15 5 8 1008.9 1008.8 0.0
24/05:30pm 31.5 38.5 27.8 81 2.7 NW 7 11 4 6 1009.1 1009.0 0.0
24/05:00pm 31.8 38.5 27.9 80 2.8 NNW 9 15 5 8 1008.8 1008.7 0.0
24/04:30pm 32.3 39.5 28.6 81 2.7 NW 9 13 5 7 1008.8 1008.7 0.0
24/04:00pm 32.4 39.0 27.8 77 3.4 NW 9 15 5 8 1008.9 1008.8 0.0
24/03:30pm 32.1 38.2 27.6 77 3.3 NW 11 17 6 9 1008.7 1008.6 0.0
24/03:00pm 31.7 37.4 27.6 79 3.0 NW 13 17 7 9 1009.2 1009.1 0.0
24/02:30pm 32.0 38.8 28.5 82 2.6 NW 11 19 6 10 1009.5 1009.4 0.0
24/02:00pm 32.4 39.6 29.1 83 2.4 NW 11 17 6 9 1009.8 1009.7 0.0
24/01:30pm 31.7 37.9 27.8 80 2.8 NW 11 15 6 8 1010.3 1010.2 0.0
24/01:00pm 32.5 39.3 28.6 80 2.9 NNW 11 17 6 9 1010.4 1010.3 0.0
24/12:30pm 31.8 38.9 28.5 83 2.4 NW 9 15 5 8 1011.0 1010.9 0.0
24/12:00pm 31.8 39.3 29.0 85 2.1 NW 9 15 5 8 1011.3 1011.2 0.0
24/11:30am 32.0 40.8 30.1 90 1.4 NW 7 15 4 8 1011.4 1011.3 0.0
24/11:00am 31.1 39.8 30.0 94 0.8 W 7 11 4 6 1011.6 1011.5 0.0
24/10:30am 30.3 39.4 30.3 100 0.0 W 6 7 3 4 1011.8 1011.7 0.0
24/10:00am 29.7 38.7 29.7 100 0.0 W 4 6 2 3 1012.0 1011.9 0.0
24/09:30am 30.9 40.3 30.7 99 0.2 WSW 6 7 3 4 1012.0 1011.9 0.0
24/09:00am 29.5 37.8 29.5 100 0.0 SW 7 9 4 5 1012.1 1012.0 0.0
24/08:30am 29.7 38.1 29.7 100 0.0 W 7 9 4 5 1012.0 1011.9 0.0
24/08:00am 29.4 37.2 29.4 100 0.0 WNW 9 13 5 7 1011.7 1011.6 0.0
24/07:30am 28.8 36.2 28.8 100 0.0 WNW 9 13 5 7 1011.3 1011.2 0.0
24/07:00am 28.4 35.1 28.4 100 0.0 WNW 11 15 6 8 1011.1 1011.0 0.0
24/06:30am 28.0 34.4 28.0 100 0.0 WNW 11 15 6 8 1010.9 1010.8 0.0
24/06:00am 28.0 34.4 28.0 100 0.0 WNW 11 15 6 8 1010.2 1010.1 0.0
24/05:30am 28.1 34.6 28.1 100 0.0 NW 11 17 6 9 1009.9 1009.8 0.0
24/05:00am 28.2 34.7 28.2 100 0.0 WNW 11 17 6 9 1010.0 1009.9 0.0
24/04:30am 28.1 34.6 28.1 100 0.0 NW 11 19 6 10 1009.3 1009.2 0.0
24/04:00am 28.1 34.9 28.1 100 0.0 NW 9 17 5 9 1009.4 1009.3 0.0
24/03:30am 28.2 34.4 28.2 100 0.0 NNW 13 20 7 11 1009.3 1009.2 0.0
24/03:00am 28.2 34.4 28.2 100 0.0 NNW 13 20 7 11 1009.3 1009.2 0.0
24/02:30am 28.4 35.1 28.4 100 0.0 NW 11 19 6 10 1009.6 1009.5 0.0
24/02:00am 28.5 35.6 28.5 100 0.0 NW 9 17 5 9 1009.9 1009.8 0.0
24/01:30am 28.6 35.4 28.6 100 0.0 NW 11 17 6 9 1010.0 1009.9 0.0
24/01:00am 28.6 35.1 28.6 100 0.0 NW 13 20 7 11 1010.1 1010.0 0.0
24/12:30am 28.6 34.7 28.6 100 0.0 NW 15 20 8 11 1010.3 1010.2 0.0
24/12:00am 28.6 35.1 28.6 100 0.0 NW 13 19 7 10 1010.5 1010.4 0.0
 
Date/Time
CST
Temp
°C
App
Temp
°C
Dew
Point
°C
Rel
Hum
%
Delta-T
°C
Wind Press
QNH
hPa
Press
MSL
hPa
Rain since
9am
mm
Dir  Spd
km/h
Gust
km/h
Spd
kts
Gust
kts
23/11:30pm 28.8 35.4 28.8 100 0.0 NNW 13 19 7 10 1010.7 1010.6 0.0
23/11:00pm 28.8 35.8 28.8 100 0.0 NNW 11 17 6 9 1010.8 1010.7 0.0
23/10:30pm 28.8 35.8 28.8 100 0.0 NNW 11 17 6 9 1010.4 1010.3 0.0
23/10:00pm 28.6 35.8 28.6 100 0.0 NNW 9 15 5 8 1009.9 1009.8 0.0
23/09:30pm 28.4 35.5 28.4 100 0.0 NNW 9 13 5 7 1009.6 1009.5 0.0
23/09:00pm 28.4 35.5 28.4 100 0.0 NW 9 13 5 7 1009.1 1009.0 0.0
23/08:30pm 28.5 36.0 28.5 100 0.0 NW 7 13 4 7 1008.8 1008.7 0.0
23/08:00pm 28.5 36.0 28.5 100 0.0 NW 7 13 4 7 1008.4 1008.3 0.0
23/07:30pm 28.7 35.6 28.7 100 0.0 NW 11 15 6 8 1008.2 1008.1 0.0
23/07:00pm 28.9 35.4 28.2 96 0.5 NNW 11 17 6 9 1007.8 1007.7 0.0
23/06:30pm 29.9 36.7 28.5 92 1.0 NW 11 17 6 9 1007.5 1007.4 0.0
23/06:00pm 30.4 37.6 29.1 93 1.0 NW 11 17 6 9 1007.3 1007.2 0.0
23/05:30pm 30.8 37.8 29.3 92 1.1 NW 13 19 7 10 1007.3 1007.2 0.0
23/05:00pm 31.4 38.7 29.7 91 1.3 NW 13 20 7 11 1007.1 1007.0 0.0
23/04:30pm 31.2 37.7 29.2 89 1.5 NNW 15 20 8 11 1006.9 1006.8 0.0
23/04:00pm 31.4 38.3 29.7 91 1.3 NNW 15 22 8 12 1007.1 1007.0 0.0
23/03:30pm 31.4 38.6 30.1 93 1.0 NNW 15 22 8 12 1007.3 1007.2 0.0

Other Formats:

Comma delimited format used in spreadsheet applications
http://www.bom.gov.au/fwo/IDD60801/IDD60801.94108.axf

JavaScript Object Notation format (JSON) in row-major order
http://www.bom.gov.au/fwo/IDD60801/IDD60801.94108.json